createdAt,value
2018-02-08T00:01:30.730Z,99553.05
2018-02-08T00:03:59.205Z,99566.82
2018-02-08T00:06:27.713Z,99539.77
2018-02-08T00:08:56.260Z,99546.46
2018-02-08T00:11:24.741Z,99543.36
2018-02-08T00:13:53.197Z,99557.09
2018-02-08T00:16:21.695Z,99558.23
2018-02-08T00:18:50.157Z,99533.85
2018-02-08T00:21:18.641Z,99522.48
2018-02-08T00:23:47.147Z,99515.81
2018-02-08T00:26:15.601Z,99517.77
2018-02-08T00:28:44.089Z,99520.67
2018-02-08T00:31:12.555Z,99521.22
2018-02-08T00:33:41.065Z,99512.02
2018-02-08T00:36:09.529Z,99518.37
2018-02-08T00:38:38.045Z,99499.26
2018-02-08T00:41:06.503Z,99504.76
2018-02-08T00:43:35.002Z,99502.62
2018-02-08T00:46:03.453Z,99502.05
2018-02-08T00:48:31.914Z,99497.72
2018-02-08T00:51:00.418Z,99492.75
2018-02-08T00:53:28.881Z,99485.12
2018-02-08T00:55:57.348Z,99499.81
2018-02-08T00:58:25.854Z,99516.42
2018-02-08T01:00:54.367Z,99510.25
2018-02-08T01:03:22.870Z,99504.38
2018-02-08T01:05:51.345Z,99515.70
2018-02-08T01:08:19.847Z,99532.23
2018-02-08T01:10:48.295Z,99534.33
2018-02-08T01:13:16.758Z,99523.55
2018-02-08T01:15:45.253Z,99532.67
2018-02-08T01:18:13.750Z,99535.65
2018-02-08T01:20:42.245Z,99533.05
2018-02-08T01:23:10.747Z,99554.80
2018-02-08T01:25:39.277Z,99569.80
2018-02-08T01:28:07.744Z,99589.44
2018-02-08T01:30:36.201Z,99574.43
2018-02-08T01:33:04.694Z,99583.35
2018-02-08T01:35:33.157Z,99582.72
2018-02-08T01:38:01.651Z,99577.63
2018-02-08T01:40:30.129Z,99565.42
2018-02-08T01:42:58.630Z,99562.56
2018-02-08T01:45:27.093Z,99573.95
2018-02-08T01:47:55.597Z,99580.52
2018-02-08T01:50:24.138Z,99572.44
2018-02-08T01:52:52.597Z,99540.67
2018-02-08T01:55:21.089Z,99529.83
2018-02-08T01:57:49.589Z,99539.55
2018-02-08T02:00:18.051Z,99532.84
2018-02-08T02:02:46.586Z,99523.45
2018-02-08T02:05:15.085Z,99497.62
2018-02-08T02:07:43.541Z,99457.53
2018-02-08T02:10:12.015Z,99437.36
2018-02-08T02:12:40.552Z,99436.97
2018-02-08T02:15:09.048Z,99456.70
2018-02-08T02:17:37.510Z,99454.22
2018-02-08T02:20:06.047Z,99464.04
2018-02-08T02:22:34.533Z,99460.72
2018-02-08T02:25:03.049Z,99428.05
2018-02-08T02:27:31.553Z,99417.36
2018-02-08T02:30:00.051Z,99399.44
2018-02-08T02:32:28.594Z,99409.72
2018-02-08T02:34:57.060Z,99424.31
2018-02-08T02:37:25.557Z,99433.97
2018-02-08T02:39:54.070Z,99439.89
2018-02-08T02:42:22.525Z,99432.20
2018-02-08T02:44:51.041Z,99446.34
2018-02-08T02:47:19.522Z,99429.26
2018-02-08T02:49:48.001Z,99438.47
2018-02-08T02:52:16.497Z,99460.58
2018-02-08T02:54:44.977Z,99459.33
2018-02-08T02:57:13.469Z,99459.37
2018-02-08T02:59:41.939Z,99460.09
2018-02-08T03:02:10.480Z,99446.34
2018-02-08T03:04:38.949Z,99434.03
2018-02-08T03:07:07.417Z,99423.89
2018-02-08T03:09:35.910Z,99436.84
2018-02-08T03:12:04.376Z,99421.63
2018-02-08T03:14:32.873Z,99381.23
2018-02-08T03:17:01.338Z,99403.56
2018-02-08T03:19:29.830Z,99370.33
2018-02-08T03:21:58.326Z,99365.24
2018-02-08T03:24:26.802Z,99436.91
2018-02-08T03:26:55.333Z,99462.70
2018-02-08T03:29:23.821Z,99443.81
2018-02-08T03:31:52.297Z,99436.86
2018-02-08T03:34:20.833Z,99432.73
2018-02-08T03:36:49.289Z,99411.56
2018-02-08T03:39:17.743Z,99440.62
2018-02-08T03:41:46.265Z,99445.59
2018-02-08T03:44:14.747Z,99424.78
2018-02-08T03:46:43.197Z,99396.84
2018-02-08T03:49:11.685Z,99419.20
2018-02-08T03:51:40.183Z,99426.53
2018-02-08T03:54:08.693Z,99415.69
2018-02-08T03:56:37.157Z,99428.20
2018-02-08T03:59:05.645Z,99421.44
2018-02-08T04:01:34.153Z,99404.91
2018-02-08T04:04:02.636Z,99412.94
2018-02-08T04:06:31.130Z,99408.50
2018-02-08T04:08:59.719Z,99419.59
2018-02-08T04:11:28.237Z,99423.58
2018-02-08T04:13:56.726Z,99422.73
2018-02-08T04:16:25.243Z,99414.09
2018-02-08T04:18:53.705Z,99424.69
2018-02-08T04:21:22.200Z,99429.39
2018-02-08T04:23:50.673Z,99427.61
2018-02-08T04:26:19.179Z,99430.80
2018-02-08T04:28:47.650Z,99434.30
2018-02-08T04:31:16.133Z,99441.99
2018-02-08T04:33:44.625Z,99442.81
2018-02-08T04:36:13.125Z,99449.55
2018-02-08T04:38:53.252Z,99443.77
2018-02-08T04:41:33.469Z,99461.55
2018-02-08T04:44:17.429Z,99466.98
2018-02-08T04:46:57.386Z,99478.38
2018-02-08T04:49:25.887Z,99489.16
2018-02-08T04:51:54.377Z,99485.86
2018-02-08T04:54:22.834Z,99482.56
2018-02-08T04:56:51.325Z,99486.59
2018-02-08T04:59:19.776Z,99485.42
2018-02-08T05:01:48.289Z,99501.98
2018-02-08T05:04:16.734Z,99502.70
2018-02-08T05:06:45.195Z,99503.73
2018-02-08T05:09:13.637Z,99510.36
2018-02-08T05:11:42.135Z,99508.28
2018-02-08T05:14:10.578Z,99510.95
2018-02-08T05:16:39.042Z,99519.36
2018-02-08T05:19:07.489Z,99527.63
2018-02-08T05:21:35.978Z,99514.37
2018-02-08T05:24:04.430Z,99525.86
2018-02-08T05:26:32.886Z,99523.59
2018-02-08T05:29:01.396Z,99531.85
2018-02-08T05:31:29.883Z,99535.55
2018-02-08T05:33:58.381Z,99530.19
2018-02-08T05:36:26.830Z,99528.64
2018-02-08T05:38:55.281Z,99508.39
2018-02-08T05:41:23.769Z,99530.48
2018-02-08T05:43:52.221Z,99518.30
2018-02-08T05:46:20.713Z,99527.39
2018-02-08T05:48:49.215Z,99541.34
2018-02-08T05:51:17.670Z,99540.14
2018-02-08T05:53:46.171Z,99528.33
2018-02-08T05:56:14.630Z,99509.53
2018-02-08T05:58:43.126Z,99533.09
2018-02-08T06:01:11.571Z,99523.19
2018-02-08T06:03:40.089Z,99522.55
2018-02-08T06:06:08.550Z,99513.13
2018-02-08T06:08:37.006Z,99520.77
2018-02-08T06:11:05.496Z,99515.82
2018-02-08T06:13:33.953Z,99486.34
2018-02-08T06:16:02.453Z,99515.52
2018-02-08T06:18:30.941Z,99504.14
2018-02-08T06:20:59.449Z,99518.23
2018-02-08T06:23:27.909Z,99521.95
2018-02-08T06:25:56.379Z,99535.44
2018-02-08T06:28:24.877Z,99521.95
2018-02-08T06:30:53.432Z,99522.33
2018-02-08T06:33:21.922Z,99508.88
2018-02-08T06:35:50.458Z,99518.91
2018-02-08T06:38:18.894Z,99518.01
2018-02-08T06:40:47.393Z,99511.80
2018-02-08T06:43:15.886Z,99498.36
2018-02-08T06:45:44.349Z,99518.41
2018-02-08T06:48:12.837Z,99510.91
2018-02-08T06:50:41.339Z,99516.25
2018-02-08T06:53:09.863Z,99521.44
2018-02-08T06:55:38.318Z,99528.11
2018-02-08T06:58:06.815Z,99515.81
2018-02-08T07:00:35.295Z,99503.31
2018-02-08T07:03:03.750Z,99524.94
2018-02-08T07:05:32.246Z,99526.27
2018-02-08T07:08:00.718Z,99518.80
2018-02-08T07:10:29.253Z,99512.15
2018-02-08T07:12:57.710Z,99512.20
2018-02-08T07:15:26.232Z,99508.48
2018-02-08T07:17:54.714Z,99511.21
2018-02-08T07:20:23.187Z,99506.58
2018-02-08T07:22:51.693Z,99501.81
2018-02-08T07:25:20.149Z,99510.89
2018-02-08T07:27:48.635Z,99507.14
2018-02-08T07:30:17.110Z,99491.52
2018-02-08T07:32:45.613Z,99481.16
2018-02-08T07:35:14.114Z,99509.58
2018-02-08T07:37:42.607Z,99498.22
2018-02-08T07:40:11.166Z,99504.24
2018-02-08T07:42:39.688Z,99511.78
2018-02-08T07:45:08.248Z,99506.79
2018-02-08T07:47:36.699Z,99496.02
2018-02-08T07:50:05.224Z,99465.73
2018-02-08T07:52:33.726Z,99482.27
2018-02-08T07:55:02.835Z,99495.09
2018-02-08T07:57:31.308Z,99502.86
2018-02-08T07:59:59.801Z,99505.43
2018-02-08T08:02:28.243Z,99508.61
2018-02-08T08:04:56.702Z,99487.91
2018-02-08T08:07:25.202Z,99515.23
2018-02-08T08:09:53.675Z,99507.69
2018-02-08T08:12:22.206Z,99497.87
2018-02-08T08:14:50.715Z,99494.56
2018-02-08T08:17:19.225Z,99500.09
2018-02-08T08:19:47.709Z,99489.20
2018-02-08T08:22:16.182Z,99493.60
2018-02-08T08:24:44.696Z,99492.64
2018-02-08T08:27:13.204Z,99492.13
2018-02-08T08:29:41.674Z,99495.70
2018-02-08T08:32:10.150Z,99500.35
2018-02-08T08:34:38.662Z,99496.38
2018-02-08T08:37:07.192Z,99508.86
2018-02-08T08:39:35.793Z,99515.86
2018-02-08T08:42:04.254Z,99504.91
2018-02-08T08:44:32.888Z,99501.98
2018-02-08T08:47:01.361Z,99495.81
2018-02-08T08:49:29.935Z,99495.14
2018-02-08T08:51:58.413Z,99489.63
2018-02-08T08:54:26.931Z,99477.00
2018-02-08T08:56:55.441Z,99476.48
2018-02-08T08:59:23.901Z,99462.00
2018-02-08T09:01:52.418Z,99458.40
2018-02-08T09:04:20.991Z,99478.73
2018-02-08T09:06:49.516Z,99469.94
2018-02-08T09:09:18.022Z,99474.64
2018-02-08T09:11:46.490Z,99479.77
2018-02-08T09:14:15.019Z,99481.94
2018-02-08T09:16:43.501Z,99475.17
2018-02-08T09:19:12.068Z,99466.83
2018-02-08T09:21:40.605Z,99480.17
2018-02-08T09:24:09.063Z,99443.41
2018-02-08T09:26:37.558Z,99469.88
2018-02-08T09:29:06.014Z,99472.47
2018-02-08T09:31:34.555Z,99466.44
2018-02-08T09:34:03.117Z,99458.54
2018-02-08T09:36:31.645Z,99468.81
2018-02-08T09:39:00.155Z,99478.10
2018-02-08T09:41:28.615Z,99450.80
2018-02-08T09:43:57.120Z,99444.63
2018-02-08T09:46:25.586Z,99459.20
2018-02-08T09:48:54.097Z,99454.09
2018-02-08T09:51:22.589Z,99447.84
2018-02-08T09:53:51.054Z,99453.28
2018-02-08T09:56:19.526Z,99438.25
2018-02-08T09:58:47.978Z,99451.86
2018-02-08T10:01:17.005Z,99442.70
2018-02-08T10:03:45.467Z,99438.83
2018-02-08T10:06:13.976Z,99445.34
2018-02-08T10:08:42.448Z,99437.48
2018-02-08T10:11:10.985Z,99428.05
2018-02-08T10:13:39.437Z,99424.92
2018-02-08T10:16:07.980Z,99420.34
2018-02-08T10:18:36.482Z,99425.09
2018-02-08T10:21:04.929Z,99424.73
2018-02-08T10:23:33.413Z,99410.66
2018-02-08T10:26:01.897Z,99417.89
2018-02-08T10:28:30.438Z,99409.57
2018-02-08T10:30:58.886Z,99403.11
2018-02-08T10:33:27.401Z,99392.39
2018-02-08T10:35:55.854Z,99387.05
2018-02-08T10:38:24.361Z,99362.91
2018-02-08T10:40:52.865Z,99392.20
2018-02-08T10:43:21.326Z,99386.95
2018-02-08T10:45:49.820Z,99381.67
2018-02-08T10:48:18.321Z,99379.18
2018-02-08T10:50:46.821Z,99362.80
2018-02-08T10:53:15.371Z,99363.33
2018-02-08T10:55:43.820Z,99371.47
2018-02-08T10:58:12.287Z,99360.25
2018-02-08T11:00:40.777Z,99353.77
2018-02-08T11:03:09.318Z,99355.29
2018-02-08T11:05:37.822Z,99347.32
2018-02-08T11:08:06.286Z,99345.95
2018-02-08T11:10:34.782Z,99352.16
2018-02-08T11:13:03.292Z,99343.66
2018-02-08T11:15:31.775Z,99346.63
2018-02-08T11:18:00.285Z,99342.78
2018-02-08T11:20:28.764Z,99342.32
2018-02-08T11:22:57.300Z,99336.11
2018-02-08T11:25:25.789Z,99335.11
2018-02-08T11:27:54.299Z,99330.77
2018-02-08T11:30:22.753Z,99326.22
2018-02-08T11:32:51.253Z,99314.91
2018-02-08T11:35:19.723Z,99311.09
2018-02-08T11:37:48.321Z,99308.63
2018-02-08T11:40:16.787Z,99299.81
2018-02-08T11:42:45.286Z,99302.30
2018-02-08T11:45:13.758Z,99318.58
2018-02-08T11:47:42.236Z,99318.45
2018-02-08T11:50:10.749Z,99313.14
2018-02-08T11:52:39.214Z,99318.09
2018-02-08T11:55:07.672Z,99301.30
2018-02-08T11:57:36.211Z,99310.46
2018-02-08T12:00:04.689Z,99304.34
2018-02-08T12:02:33.163Z,99295.61
2018-02-08T12:05:01.675Z,99283.94
2018-02-08T12:07:30.178Z,99296.64
2018-02-08T12:09:58.652Z,99288.27
2018-02-08T12:12:27.137Z,99290.80
2018-02-08T12:14:55.642Z,99283.19
2018-02-08T12:17:24.097Z,99265.14
2018-02-08T12:19:52.566Z,99292.22
2018-02-08T12:22:21.065Z,99291.86
2018-02-08T12:24:49.525Z,99272.79
2018-02-08T12:27:18.026Z,99278.42
2018-02-08T12:29:46.536Z,99273.12
2018-02-08T12:32:15.162Z,99273.94
2018-02-08T12:34:43.825Z,99275.16
2018-02-08T12:37:12.285Z,99273.83
2018-02-08T12:39:40.741Z,99263.16
2018-02-08T12:42:10.163Z,99277.77
2018-02-08T12:44:38.622Z,99270.14
2018-02-08T12:47:07.133Z,99273.05
2018-02-08T12:49:35.594Z,99274.41
2018-02-08T12:52:04.090Z,99271.13
2018-02-08T12:54:32.596Z,99270.14
2018-02-08T12:57:01.077Z,99276.98
2018-02-08T12:59:29.565Z,99274.92
2018-02-08T13:01:58.104Z,99278.63
2018-02-08T13:04:26.588Z,99277.41
2018-02-08T13:06:55.077Z,99274.80
2018-02-08T13:09:23.551Z,99279.99
2018-02-08T13:11:52.107Z,99273.85
2018-02-08T13:14:20.597Z,99282.17
2018-02-08T13:16:49.060Z,99275.77
2018-02-08T13:19:17.684Z,99293.53
2018-02-08T13:21:46.154Z,99256.53
2018-02-08T13:24:14.631Z,99287.36
2018-02-08T13:26:43.121Z,99289.44
2018-02-08T13:29:11.596Z,99287.36
2018-02-08T13:31:40.905Z,99287.94
2018-02-08T13:34:09.393Z,99279.34
2018-02-08T13:36:39.491Z,99282.77
2018-02-08T13:39:07.973Z,99274.04
2018-02-08T13:41:36.475Z,99267.64
2018-02-08T13:44:04.975Z,99276.22
2018-02-08T13:46:33.514Z,99279.34
2018-02-08T13:49:02.036Z,99283.98
2018-02-08T13:51:35.136Z,99276.50
2018-02-08T13:54:09.105Z,99272.02
2018-02-08T13:56:39.879Z,99274.45
2018-02-08T13:59:18.322Z,99278.67
2018-02-08T14:01:49.369Z,99280.04
2018-02-08T14:04:17.865Z,99277.47
2018-02-08T14:06:46.324Z,99273.91
2018-02-08T14:09:14.826Z,99289.84
2018-02-08T14:11:43.335Z,99298.71
2018-02-08T14:14:11.839Z,99295.58
2018-02-08T14:16:40.319Z,99297.47
2018-02-08T14:19:08.828Z,99299.64
2018-02-08T14:21:37.303Z,99291.44
2018-02-08T14:24:05.793Z,99299.64
2018-02-08T14:26:34.340Z,99294.31
2018-02-08T14:29:02.793Z,99272.05
2018-02-08T14:31:31.285Z,99295.64
2018-02-08T14:33:59.785Z,99295.36
2018-02-08T14:36:28.311Z,99276.95
2018-02-08T14:38:56.803Z,99275.47
2018-02-08T14:41:25.332Z,99277.09
2018-02-08T14:43:53.810Z,99282.14
2018-02-08T14:46:22.274Z,99280.74
2018-02-08T14:48:50.741Z,99265.98
2018-02-08T14:51:20.038Z,99291.75
2018-02-08T14:53:48.519Z,99301.68
2018-02-08T14:56:17.007Z,99298.26
2018-02-08T14:58:45.532Z,99294.98
2018-02-08T15:01:14.038Z,99294.83
2018-02-08T15:03:42.510Z,99282.52
2018-02-08T15:06:11.013Z,99291.77
2018-02-08T15:08:39.492Z,99293.53
2018-02-08T15:11:07.997Z,99291.61
2018-02-08T15:13:36.457Z,99292.16
2018-02-08T15:16:05.008Z,99291.15
2018-02-08T15:18:33.507Z,99297.95
2018-02-08T15:21:02.006Z,99292.69
2018-02-08T15:23:30.478Z,99299.30
2018-02-08T15:25:58.998Z,99299.95
2018-02-08T15:28:27.467Z,99293.16
2018-02-08T15:30:55.935Z,99299.97
2018-02-08T15:33:24.443Z,99300.03
2018-02-08T15:35:52.942Z,99303.55
2018-02-08T15:38:21.401Z,99307.83
2018-02-08T15:40:49.906Z,99306.41
2018-02-08T15:43:18.417Z,99295.75
2018-02-08T15:45:46.878Z,99295.44
2018-02-08T15:48:15.412Z,99311.05
2018-02-08T15:50:43.909Z,99314.36
2018-02-08T15:53:12.431Z,99316.11
2018-02-08T15:55:40.894Z,99333.80
2018-02-08T15:58:09.385Z,99331.31
2018-02-08T16:00:37.849Z,99330.58
2018-02-08T16:03:06.419Z,99334.59
2018-02-08T16:05:34.909Z,99322.02
2018-02-08T16:08:03.391Z,99337.66
2018-02-08T16:10:31.907Z,99336.92
2018-02-08T16:13:00.402Z,99340.22
2018-02-08T16:15:28.923Z,99341.17
2018-02-08T16:17:57.450Z,99341.80
2018-02-08T16:20:26.607Z,99345.16
2018-02-08T16:22:55.102Z,99362.88
2018-02-08T16:25:23.587Z,99356.16
2018-02-08T16:27:52.099Z,99358.55
2018-02-08T16:30:20.629Z,99359.00
2018-02-08T16:32:49.144Z,99376.20
2018-02-08T16:35:17.650Z,99376.55
2018-02-08T16:37:46.127Z,99378.54
2018-02-08T16:40:14.635Z,99385.41
2018-02-08T16:42:43.147Z,99392.35
2018-02-08T16:45:11.634Z,99385.92
2018-02-08T16:47:40.156Z,99392.56
2018-02-08T16:50:08.623Z,99383.05
2018-02-08T16:52:37.104Z,99392.77
2018-02-08T16:55:05.605Z,99393.45
2018-02-08T16:57:34.047Z,99397.17
2018-02-08T17:00:02.546Z,99401.92
2018-02-08T17:02:31.099Z,99403.38
2018-02-08T17:04:59.825Z,99407.00
2018-02-08T17:07:28.491Z,99413.54
2018-02-08T17:09:57.005Z,99405.87
2018-02-08T17:12:25.470Z,99410.77
2018-02-08T17:14:53.965Z,99413.41
2018-02-08T17:17:22.426Z,99400.33
2018-02-08T17:19:50.922Z,99413.08
2018-02-08T17:22:19.403Z,99420.77
2018-02-08T17:24:47.921Z,99417.06
2018-02-08T17:27:16.422Z,99412.93
2018-02-08T17:29:44.913Z,99416.48
2018-02-08T17:32:13.420Z,99415.74
2018-02-08T17:34:41.940Z,99426.75
2018-02-08T17:37:10.406Z,99427.57
2018-02-08T17:39:38.926Z,99417.33
2018-02-08T17:42:07.419Z,99415.47
2018-02-08T17:44:35.925Z,99431.50
2018-02-08T17:47:05.189Z,99431.06
2018-02-08T17:49:33.867Z,99428.19
2018-02-08T17:52:02.426Z,99431.81
2018-02-08T17:54:30.894Z,99418.25
2018-02-08T17:56:59.560Z,99433.73
2018-02-08T17:59:28.227Z,99433.91
2018-02-08T18:01:56.806Z,99433.11
2018-02-08T18:04:25.301Z,99441.14
2018-02-08T18:06:53.810Z,99454.16
2018-02-08T18:09:22.277Z,99454.57
2018-02-08T18:11:50.778Z,99449.72
2018-02-08T18:14:19.286Z,99443.31
2018-02-08T18:16:47.764Z,99450.59
2018-02-08T18:19:16.224Z,99446.97
2018-02-08T18:21:44.722Z,99448.36
2018-02-08T18:24:13.176Z,99462.27
2018-02-08T18:26:41.669Z,99458.64
2018-02-08T18:29:10.133Z,99458.13
2018-02-08T18:31:38.633Z,99456.60
2018-02-08T18:34:07.138Z,99452.06
2018-02-08T18:36:35.602Z,99456.77
2018-02-08T18:39:04.170Z,99459.00
2018-02-08T18:41:32.665Z,99455.95
2018-02-08T18:44:01.136Z,99457.09
2018-02-08T18:46:29.654Z,99451.41
2018-02-08T18:48:58.115Z,99457.14
2018-02-08T18:51:26.583Z,99456.97
2018-02-08T18:53:55.091Z,99459.73
2018-02-08T18:56:23.556Z,99446.00
2018-02-08T18:58:52.061Z,99456.10
2018-02-08T19:01:20.554Z,99460.27
2018-02-08T19:03:49.054Z,99466.69
2018-02-08T19:06:17.546Z,99470.00
2018-02-08T19:08:46.018Z,99468.25
2018-02-08T19:11:14.482Z,99477.92
2018-02-08T19:13:42.998Z,99477.25
2018-02-08T19:16:11.466Z,99470.09
2018-02-08T19:18:39.929Z,99475.92
2018-02-08T19:21:08.422Z,99474.66
2018-02-08T19:23:36.882Z,99469.30
2018-02-08T19:26:05.396Z,99470.84
2018-02-08T19:28:33.905Z,99469.80
2018-02-08T19:31:02.397Z,99463.94
2018-02-08T19:33:30.861Z,99479.10
2018-02-08T19:35:59.361Z,99473.47
2018-02-08T19:38:27.887Z,99479.50
2018-02-08T19:40:56.393Z,99487.26
2018-02-08T19:43:24.861Z,99492.19
2018-02-08T19:45:53.374Z,99498.33
2018-02-08T19:48:21.843Z,99490.77
2018-02-08T19:50:50.315Z,99499.58
2018-02-08T19:53:18.826Z,99498.09
2018-02-08T19:55:47.386Z,99496.20
2018-02-08T19:58:15.869Z,99493.72
2018-02-08T20:00:44.361Z,99488.48
2018-02-08T20:03:12.880Z,99480.90
2018-02-08T20:05:41.354Z,99484.24
2018-02-08T20:08:09.839Z,99483.66
2018-02-08T20:10:38.354Z,99477.25
2018-02-08T20:13:06.816Z,99487.95
2018-02-08T20:15:36.141Z,99494.01
2018-02-08T20:18:04.605Z,99497.58
2018-02-08T20:20:33.101Z,99497.40
2018-02-08T20:23:01.586Z,99501.59
2018-02-08T20:25:44.777Z,99501.34
2018-02-08T20:28:13.276Z,99495.47
2018-02-08T20:30:41.762Z,99508.64
2018-02-08T20:33:10.265Z,99513.23
2018-02-08T20:35:38.738Z,99522.18
2018-02-08T20:38:07.233Z,99517.88
2018-02-08T20:40:35.693Z,99528.84
2018-02-08T20:43:09.637Z,99532.19
2018-02-08T20:45:38.150Z,99532.12
2018-02-08T20:48:06.646Z,99534.96
2018-02-08T20:50:35.105Z,99535.36
2018-02-08T20:53:03.601Z,99543.49
2018-02-08T20:55:32.094Z,99544.85
2018-02-08T20:58:00.606Z,99556.67
2018-02-08T21:00:29.069Z,99556.52
2018-02-08T21:02:57.563Z,99557.52
2018-02-08T21:05:26.026Z,99561.52
2018-02-08T21:07:54.529Z,99561.22
2018-02-08T21:10:23.032Z,99565.66
2018-02-08T21:12:51.493Z,99550.61
2018-02-08T21:15:19.963Z,99564.64
2018-02-08T21:17:48.459Z,99559.42
2018-02-08T21:20:16.963Z,99553.25
2018-02-08T21:22:45.425Z,99550.91
2018-02-08T21:25:13.911Z,99553.98
2018-02-08T21:27:42.431Z,99555.02
2018-02-08T21:30:10.897Z,99557.84
2018-02-08T21:32:39.352Z,99555.61
2018-02-08T21:35:07.842Z,99557.78
2018-02-08T21:37:36.403Z,99556.58
2018-02-08T21:40:04.875Z,99554.88
2018-02-08T21:42:33.380Z,99560.28
2018-02-08T21:45:01.878Z,99560.44
2018-02-08T21:47:30.374Z,99560.64
2018-02-08T21:49:58.879Z,99558.94
2018-02-08T21:52:27.365Z,99553.22
2018-02-08T21:54:55.818Z,99559.95
2018-02-08T21:57:24.324Z,99566.70
2018-02-08T21:59:52.786Z,99566.35
2018-02-08T22:02:21.292Z,99565.63
2018-02-08T22:04:49.814Z,99566.48
2018-02-08T22:07:18.282Z,99570.06
2018-02-08T22:09:46.740Z,99562.52
2018-02-08T22:12:15.244Z,99557.15
2018-02-08T22:14:43.790Z,99559.03
2018-02-08T22:17:12.285Z,99559.13
2018-02-08T22:19:40.742Z,99564.25
2018-02-08T22:22:09.242Z,99548.03
2018-02-08T22:24:37.752Z,99547.72
2018-02-08T22:27:06.205Z,99547.28
2018-02-08T22:29:34.686Z,99550.86
2018-02-08T22:32:03.143Z,99542.03
2018-02-08T22:34:31.641Z,99552.44
2018-02-08T22:37:00.134Z,99554.42
2018-02-08T22:39:28.617Z,99551.66
2018-02-08T22:41:57.112Z,99538.39
2018-02-08T22:44:25.573Z,99545.58
2018-02-08T22:46:54.081Z,99544.98
2018-02-08T22:49:22.555Z,99539.39
2018-02-08T22:51:51.047Z,99542.29
2018-02-08T22:54:19.543Z,99541.23
2018-02-08T22:56:48.016Z,99531.13
2018-02-08T22:59:16.510Z,99543.47
2018-02-08T23:01:45.007Z,99537.50
2018-02-08T23:04:13.501Z,99529.99
2018-02-08T23:06:41.966Z,99544.86
2018-02-08T23:09:10.463Z,99546.20
2018-02-08T23:11:38.922Z,99540.02
2018-02-08T23:14:07.377Z,99544.06
2018-02-08T23:16:35.908Z,99543.75
2018-02-08T23:19:04.373Z,99544.06
2018-02-08T23:21:32.879Z,99546.23
2018-02-08T23:24:01.384Z,99550.35
2018-02-08T23:26:29.858Z,99550.89
2018-02-08T23:28:58.374Z,99554.44
2018-02-08T23:31:26.848Z,99555.73
2018-02-08T23:33:55.318Z,99550.50
2018-02-08T23:36:23.813Z,99559.30
2018-02-08T23:38:52.310Z,99553.65
2018-02-08T23:41:20.845Z,99559.66
2018-02-08T23:43:49.302Z,99563.70
2018-02-08T23:46:17.757Z,99558.28
2018-02-08T23:48:46.255Z,99569.38
2018-02-08T23:51:14.762Z,99576.28
2018-02-08T23:53:43.239Z,99578.25
2018-02-08T23:56:11.750Z,99580.75
2018-02-08T23:58:40.194Z,99597.21
